Time;durP1;ratioP1;P1;durP2;ratioP2;P2;SDS_P1;SDS_P2;PMS_P1;PMS_P2;Temp;Humidity;BMP_temperature;BMP_pressure;BME280_temperature;BME280_humidity;BME280_pressure;Samples;Min_cycle;Max_cycle;Signal;HPM_P1;HPM_P2
2022/04/30 00:02:11;;;;;;;3.22;1.83;;;26.70;28.90;;;;;;5040892;28;20124;-69
2022/04/30 00:04:40;;;;;;;2.83;1.90;;;26.70;28.90;;;;;;5043761;28;20102;-69
2022/04/30 00:07:08;;;;;;;2.30;1.10;;;26.60;28.90;;;;;;5044688;28;20119;-69
2022/04/30 00:09:36;;;;;;;3.88;1.73;;;26.60;28.90;;;;;;5045374;28;20531;-68
2022/04/30 00:12:03;;;;;;;2.03;1.55;;;26.60;28.90;;;;;;5044114;28;20505;-69
2022/04/30 00:14:30;;;;;;;4.38;1.55;;;26.60;28.90;;;;;;5040865;28;20095;-68
2022/04/30 00:16:58;;;;;;;2.17;1.50;;;26.60;28.90;;;;;;5044482;28;20502;-70
2022/04/30 00:19:26;;;;;;;4.03;1.73;;;26.60;28.90;;;;;;5044421;28;20044;-69
2022/04/30 00:21:55;;;;;;;4.53;1.67;;;26.50;28.80;;;;;;5046036;28;20088;-68
2022/04/30 00:24:23;;;;;;;2.25;1.73;;;26.50;28.80;;;;;;5043282;28;20056;-69
2022/04/30 00:26:50;;;;;;;2.10;1.23;;;26.50;28.90;;;;;;5045318;28;20055;-69
2022/04/30 00:29:18;;;;;;;3.67;1.80;;;26.50;28.80;;;;;;5044090;28;20046;-68
2022/04/30 00:31:45;;;;;;;1.70;1.60;;;26.50;28.80;;;;;;5044136;28;20044;-69
2022/04/30 00:34:12;;;;;;;3.42;2.22;;;26.50;28.80;;;;;;5044725;28;20059;-68
2022/04/30 00:36:39;;;;;;;2.97;2.20;;;26.50;28.80;;;;;;5045571;28;20037;-68
2022/04/30 00:39:08;;;;;;;2.45;2.35;;;26.50;28.80;;;;;;5043845;28;20148;-68
2022/04/30 00:41:36;;;;;;;3.55;2.17;;;26.50;28.80;;;;;;5043501;28;20517;-68
2022/04/30 00:44:04;;;;;;;3.53;2.42;;;26.50;28.80;;;;;;5043504;28;20099;-69
2022/04/30 00:46:31;;;;;;;5.70;1.90;;;26.50;28.90;;;;;;5044052;28;20087;-69
2022/04/30 00:48:58;;;;;;;1.48;1.38;;;26.40;28.80;;;;;;5044006;28;20926;-69
2022/04/30 00:51:28;;;;;;;3.25;2.95;;;26.40;28.80;;;;;;5037097;28;20041;-68
2022/04/30 00:53:57;;;;;;;6.07;2.28;;;26.40;28.80;;;;;;5043049;28;20049;-68
2022/04/30 00:56:30;;;;;;;2.55;2.35;;;26.40;28.90;;;;;;5041493;28;20041;-68
2022/04/30 00:58:57;;;;;;;4.57;2.22;;;26.40;28.90;;;;;;5036615;28;20045;-69
2022/04/30 01:01:24;;;;;;;3.08;2.33;;;26.40;28.90;;;;;;5037053;28;20419;-69
2022/04/30 01:04:12;;;;;;;4.75;1.88;;;26.30;28.90;;;;;;4966462;28;20057;-69
2022/04/30 01:06:53;;;;;;;5.07;2.40;;;26.30;28.90;;;;;;4965249;28;20051;-69
2022/04/30 01:09:22;;;;;;;2.80;2.08;;;26.30;29.00;;;;;;4982989;28;20050;-69
2022/04/30 01:11:56;;;;;;;2.53;1.98;;;26.30;29.00;;;;;;4983402;28;20047;-69
2022/04/30 01:14:28;;;;;;;6.28;2.80;;;26.30;29.00;;;;;;4983834;28;20053;-69
2022/04/30 01:16:57;;;;;;;3.58;2.00;;;26.30;29.10;;;;;;4982835;28;20053;-71
2022/04/30 01:19:26;;;;;;;6.25;2.33;;;26.30;29.10;;;;;;4983253;28;20042;-72
2022/04/30 01:21:56;;;;;;;3.13;2.47;;;26.30;29.20;;;;;;4985011;28;20174;-71
2022/04/30 01:24:26;;;;;;;3.88;2.65;;;26.20;29.10;;;;;;4983064;28;20137;-71
2022/04/30 01:26:55;;;;;;;4.28;3.58;;;26.20;29.20;;;;;;4978494;28;20419;-71
2022/04/30 01:29:24;;;;;;;5.80;3.53;;;26.20;29.20;;;;;;4977968;28;20046;-71
2022/04/30 01:37:24;;;;;;;5.28;3.95;;;26.10;29.30;;;;;;4983095;28;20045;-70
2022/04/30 01:39:57;;;;;;;3.88;3.58;;;26.20;29.40;;;;;;4982369;28;20145;-70
2022/04/30 01:42:25;;;;;;;4.95;3.92;;;26.20;29.40;;;;;;5036142;28;20594;-70
2022/04/30 01:44:54;;;;;;;4.93;4.40;;;26.10;29.30;;;;;;5042246;28;20052;-69
2022/04/30 01:47:24;;;;;;;6.25;3.70;;;26.10;29.30;;;;;;5043354;28;20134;-69
2022/04/30 01:49:51;;;;;;;9.88;4.88;;;26.20;29.40;;;;;;5042746;28;20496;-69
2022/04/30 01:52:18;;;;;;;6.70;4.85;;;26.20;29.40;;;;;;5046614;28;20048;-69
2022/04/30 01:54:46;;;;;;;6.32;5.18;;;26.10;29.40;;;;;;5050659;28;20052;-69
2022/04/30 01:57:22;;;;;;;8.13;4.82;;;26.20;29.40;;;;;;5031536;28;20466;-69
2022/04/30 01:59:51;;;;;;;8.07;5.55;;;26.20;29.50;;;;;;5048625;28;20053;-69
2022/04/30 02:02:18;;;;;;;9.40;6.55;;;26.10;29.50;;;;;;5049495;28;20221;-69
2022/04/30 02:04:45;;;;;;;9.57;5.68;;;26.10;29.50;;;;;;5049364;28;20160;-69
2022/04/30 02:07:13;;;;;;;9.07;7.00;;;26.10;29.50;;;;;;5049844;28;20037;-69
2022/04/30 02:09:40;;;;;;;8.20;5.25;;;26.10;29.50;;;;;;5050270;28;20037;-68
2022/04/30 02:12:08;;;;;;;10.82;7.18;;;26.10;29.60;;;;;;5049387;28;20040;-69
2022/04/30 02:14:44;;;;;;;9.00;5.93;;;26.10;29.60;;;;;;5049030;28;20140;-68
2022/04/30 02:17:13;;;;;;;7.15;5.13;;;26.10;29.60;;;;;;5049338;28;20044;-70
2022/04/30 02:22:28;;;;;;;6.22;5.72;;;26.10;29.70;;;;;;5048894;28;20072;-70
2022/04/30 02:24:56;;;;;;;10.23;5.63;;;26.00;29.60;;;;;;5049886;28;20695;-69
2022/04/30 02:27:25;;;;;;;8.40;4.63;;;26.00;29.60;;;;;;5049705;28;20513;-70
2022/04/30 02:29:53;;;;;;;6.85;4.25;;;26.00;29.60;;;;;;5048999;28;20798;-70
2022/04/30 02:32:20;;;;;;;6.30;5.63;;;26.00;29.60;;;;;;5025545;28;20183;-70
2022/04/30 02:34:47;;;;;;;6.05;4.75;;;26.00;29.60;;;;;;5049077;28;20413;-71
2022/04/30 02:37:14;;;;;;;7.25;5.28;;;26.00;29.60;;;;;;5049374;28;20049;-71
2022/04/30 02:39:43;;;;;;;6.75;3.58;;;26.00;29.70;;;;;;5050419;28;20041;-71
2022/04/30 02:42:11;;;;;;;5.97;4.05;;;26.00;29.70;;;;;;5044802;28;20049;-70
2022/04/30 02:44:38;;;;;;;4.40;4.00;;;25.90;29.70;;;;;;5048738;28;20041;-70
2022/04/30 02:47:08;;;;;;;4.22;3.58;;;25.90;29.70;;;;;;5049505;28;20048;-69
2022/04/30 02:49:38;;;;;;;3.88;3.58;;;25.90;29.70;;;;;;5049395;28;20091;-70
2022/04/30 02:52:06;;;;;;;6.60;4.03;;;25.90;29.70;;;;;;5042639;28;20068;-69
2022/04/30 02:54:34;;;;;;;6.43;3.83;;;25.90;29.70;;;;;;5049663;28;20051;-69
2022/04/30 02:57:01;;;;;;;5.32;3.88;;;25.90;29.80;;;;;;5049157;28;20473;-69
2022/04/30 03:02:24;;;;;;;5.18;3.40;;;25.90;29.80;;;;;;5013241;28;20045;-69
2022/04/30 03:04:54;;;;;;;5.55;3.92;;;25.80;29.80;;;;;;5026710;28;20055;-69
2022/04/30 03:07:22;;;;;;;6.57;2.58;;;25.90;29.80;;;;;;5046503;28;20041;-70
2022/04/30 03:09:50;;;;;;;6.95;2.95;;;25.90;29.80;;;;;;5046733;28;20077;-69
2022/04/30 03:12:17;;;;;;;5.22;3.08;;;25.80;29.80;;;;;;5045524;28;20047;-69
2022/04/30 03:14:44;;;;;;;5.32;3.28;;;25.80;29.80;;;;;;5046039;28;20095;-68
2022/04/30 03:22:42;;;;;;;;;;;25.80;29.90;;;;;;5039706;28;20145;-68
2022/04/30 03:25:09;;;;;;;4.00;2.80;;;25.70;29.90;;;;;;5042297;28;20015;-70
2022/04/30 03:27:37;;;;;;;3.85;3.00;;;25.70;30.00;;;;;;5047644;28;20602;-69
2022/04/30 03:30:04;;;;;;;3.53;2.67;;;25.70;30.00;;;;;;5045502;28;20498;-69
2022/04/30 03:32:32;;;;;;;2.72;2.42;;;25.70;30.00;;;;;;5046099;28;20111;-69
2022/04/30 03:35:00;;;;;;;3.30;2.40;;;25.70;30.00;;;;;;5044493;28;20045;-69
2022/04/30 03:37:27;;;;;;;3.00;2.80;;;25.70;30.00;;;;;;5044828;28;20037;-69
2022/04/30 03:39:54;;;;;;;6.18;2.58;;;25.70;30.00;;;;;;5046197;28;20057;-69
2022/04/30 03:42:21;;;;;;;3.55;2.47;;;25.70;30.00;;;;;;5045315;28;20741;-68
2022/04/30 03:44:49;;;;;;;4.15;3.20;;;25.70;30.00;;;;;;5043902;28;20140;-69
2022/04/30 03:47:16;;;;;;;3.58;2.40;;;25.70;30.00;;;;;;5044492;28;20056;-68
2022/04/30 03:49:43;;;;;;;6.22;2.97;;;25.70;30.00;;;;;;5044380;28;20051;-70
2022/04/30 03:52:12;;;;;;;4.82;2.28;;;25.70;30.00;;;;;;5044209;28;20056;-69
2022/04/30 03:54:40;;;;;;;3.38;2.95;;;25.70;30.60;;;;;;5045230;28;21919;-68
2022/04/30 03:57:07;;;;;;;3.45;2.55;;;25.60;30.00;;;;;;5044709;28;20588;-69
2022/04/30 03:59:34;;;;;;;8.95;2.78;;;25.60;30.00;;;;;;5040452;28;20045;-68
2022/04/30 04:02:01;;;;;;;4.90;2.85;;;25.60;30.00;;;;;;5043784;28;20141;-68
2022/04/30 04:04:30;;;;;;;3.00;2.38;;;25.60;30.00;;;;;;5043763;28;20037;-71
2022/04/30 04:06:58;;;;;;;2.88;2.28;;;25.60;30.00;;;;;;5041032;28;20055;-70
2022/04/30 04:09:27;;;;;;;2.75;2.55;;;25.60;30.00;;;;;;5045129;28;20056;-70
2022/04/30 04:11:54;;;;;;;3.33;2.60;;;25.60;30.00;;;;;;5043842;28;20053;-69
2022/04/30 04:19:58;;;;;;;2.78;2.58;;;25.50;30.00;;;;;;4994536;28;20049;-68
2022/04/30 04:22:25;;;;;;;5.55;2.90;;;25.50;30.00;;;;;;4984804;28;20145;-69
2022/04/30 04:27:38;;;;;;;7.80;2.88;;;25.50;30.00;;;;;;4988397;28;20054;-69
2022/04/30 04:30:07;;;;;;;3.42;3.08;;;25.50;30.10;;;;;;4988623;28;20046;-69
2022/04/30 04:32:34;;;;;;;4.50;2.53;;;25.50;30.10;;;;;;4996669;28;20034;-68
2022/04/30 04:35:01;;;;;;;3.08;2.88;;;25.50;30.10;;;;;;4987194;28;20082;-69
2022/04/30 04:37:28;;;;;;;3.53;2.65;;;25.50;30.10;;;;;;4983473;28;20291;-69
2022/04/30 04:39:56;;;;;;;3.97;2.80;;;25.50;30.20;;;;;;4985702;28;20069;-69
2022/04/30 04:42:24;;;;;;;2.50;2.20;;;25.50;30.10;;;;;;4993261;28;20149;-70
2022/04/30 04:44:51;;;;;;;3.95;2.72;;;25.40;30.10;;;;;;4987880;28;20046;-69
2022/04/30 04:47:18;;;;;;;4.63;2.28;;;25.50;30.20;;;;;;4994426;28;20053;-69
2022/04/30 04:49:47;;;;;;;3.50;2.92;;;25.40;30.10;;;;;;4984153;28;20061;-69
2022/04/30 04:52:14;;;;;;;3.58;3.05;;;25.40;30.20;;;;;;5002363;28;20048;-69
2022/04/30 04:54:41;;;;;;;3.95;3.03;;;25.40;30.20;;;;;;5026224;28;20052;-68
2022/04/30 04:57:09;;;;;;;1.98;1.88;;;25.40;30.20;;;;;;5043642;28;20140;-68
2022/04/30 04:59:36;;;;;;;2.90;2.67;;;25.40;30.20;;;;;;5042065;28;20422;-69
2022/04/30 05:02:04;;;;;;;7.10;3.58;;;25.40;30.20;;;;;;5043647;28;20094;-69
2022/04/30 05:04:33;;;;;;;3.55;3.25;;;25.40;30.10;;;;;;5035432;28;20100;-69
2022/04/30 05:07:00;;;;;;;4.78;3.42;;;25.40;30.10;;;;;;5044002;28;20056;-70
2022/04/30 05:09:27;;;;;;;8.95;3.15;;;25.30;30.00;;;;;;5043935;28;20067;-69
2022/04/30 05:11:54;;;;;;;4.70;4.28;;;25.30;30.00;;;;;;5041807;28;20133;-67
2022/04/30 05:14:23;;;;;;;4.28;3.95;;;25.30;30.00;;;;;;5043338;28;20133;-68
2022/04/30 05:16:50;;;;;;;8.00;3.42;;;25.30;30.00;;;;;;5041166;28;20048;-68
2022/04/30 05:19:17;;;;;;;7.15;4.00;;;25.30;30.00;;;;;;5035048;28;20041;-69
2022/04/30 05:21:44;;;;;;;8.25;4.60;;;25.30;30.00;;;;;;5039611;28;20080;-69
2022/04/30 05:24:11;;;;;;;7.57;4.13;;;25.30;30.00;;;;;;5042060;28;20056;-70
2022/04/30 05:26:38;;;;;;;9.80;4.60;;;25.30;30.00;;;;;;5041570;28;20049;-68
2022/04/30 05:29:06;;;;;;;4.40;3.67;;;25.20;30.00;;;;;;5043064;28;20060;-69
2022/04/30 05:31:34;;;;;;;5.10;4.72;;;25.20;30.00;;;;;;5038046;28;20118;-69
2022/04/30 05:34:01;;;;;;;6.18;5.25;;;25.20;30.00;;;;;;5043197;28;20433;-72
2022/04/30 05:36:28;;;;;;;7.40;4.60;;;25.10;30.00;;;;;;5037449;28;20046;-70
2022/04/30 05:38:56;;;;;;;5.55;4.93;;;25.10;30.00;;;;;;5041254;28;20192;-66
2022/04/30 05:41:23;;;;;;;7.93;4.53;;;25.10;30.00;;;;;;5041551;28;20069;-66
2022/04/30 05:43:50;;;;;;;4.88;4.47;;;25.10;30.10;;;;;;5042555;28;20036;-66
2022/04/30 05:46:17;;;;;;;8.05;4.97;;;25.00;30.10;;;;;;5019919;28;20049;-66
2022/04/30 05:48:45;;;;;;;9.88;4.63;;;25.10;30.20;;;;;;5043107;28;20044;-64
2022/04/30 05:51:12;;;;;;;5.97;4.75;;;25.00;30.20;;;;;;5047127;28;20048;-67
2022/04/30 05:53:40;;;;;;;5.63;5.00;;;25.00;30.20;;;;;;5043090;28;20527;-66
2022/04/30 05:56:07;;;;;;;7.00;4.30;;;25.00;30.30;;;;;;5042355;28;20137;-67
2022/04/30 05:58:34;;;;;;;5.95;5.45;;;25.00;30.30;;;;;;5043124;28;20047;-67
2022/04/30 06:01:03;;;;;;;7.75;5.53;;;24.90;30.30;;;;;;5042831;28;20049;-67
2022/04/30 06:03:31;;;;;;;7.78;5.93;;;24.90;30.40;;;;;;5040531;28;20049;-69
2022/04/30 06:05:59;;;;;;;4.95;4.53;;;24.90;30.40;;;;;;5040582;28;20901;-69
2022/04/30 06:08:26;;;;;;;11.18;5.43;;;24.90;30.50;;;;;;5042290;28;20045;-70
2022/04/30 06:10:54;;;;;;;8.40;5.03;;;24.90;30.60;;;;;;5041316;28;20492;-67
2022/04/30 06:13:21;;;;;;;10.77;5.75;;;24.90;30.60;;;;;;5040157;28;20037;-66
2022/04/30 06:15:48;;;;;;;5.53;5.13;;;24.90;30.70;;;;;;5044031;28;20555;-69
2022/04/30 06:18:16;;;;;;;5.85;5.30;;;24.90;30.70;;;;;;5042198;28;20055;-67
2022/04/30 06:20:43;;;;;;;7.50;6.15;;;24.90;30.70;;;;;;5041506;28;20566;-66
2022/04/30 06:23:15;;;;;;;8.32;6.60;;;24.90;30.70;;;;;;5042468;28;20033;-67
2022/04/30 06:25:43;;;;;;;7.93;5.95;;;24.90;30.60;;;;;;5042360;28;20059;-69
2022/04/30 06:28:11;;;;;;;5.35;4.65;;;24.90;30.60;;;;;;5023536;28;20044;-67
2022/04/30 06:30:39;;;;;;;8.20;6.10;;;24.90;30.60;;;;;;5040830;28;20147;-67
2022/04/30 06:33:06;;;;;;;7.18;6.57;;;24.90;30.50;;;;;;5039683;28;20068;-69
2022/04/30 06:35:33;;;;;;;6.85;6.15;;;24.90;30.50;;;;;;5040800;28;20056;-70
2022/04/30 06:38:00;;;;;;;6.82;6.15;;;24.90;30.50;;;;;;5037789;28;20047;-67
2022/04/30 06:40:31;;;;;;;8.88;6.97;;;24.90;30.40;;;;;;5040844;28;20136;-67
2022/04/30 06:42:59;;;;;;;8.45;5.75;;;24.90;30.40;;;;;;5042905;28;20430;-68
2022/04/30 06:45:26;;;;;;;6.38;5.57;;;25.00;30.40;;;;;;5045326;28;20126;-68
2022/04/30 06:47:53;;;;;;;9.02;6.47;;;24.90;30.40;;;;;;5045871;28;20055;-68
2022/04/30 06:50:20;;;;;;;5.28;4.88;;;25.00;30.60;;;;;;5045819;28;20565;-68
2022/04/30 06:58:40;;;;;;;5.30;4.55;;;25.00;30.50;;;;;;4996928;28;20546;-67
2022/04/30 07:01:28;;;;;;;5.95;5.40;;;25.00;30.50;;;;;;4994104;28;20441;-70
2022/04/30 07:04:01;;;;;;;5.90;5.40;;;25.00;30.50;;;;;;4999915;28;20045;-70
2022/04/30 07:06:29;;;;;;;7.40;5.15;;;25.00;30.60;;;;;;5001018;28;20058;-69
2022/04/30 07:08:56;;;;;;;5.43;4.93;;;25.00;30.60;;;;;;4994245;28;20121;-70
2022/04/30 07:11:25;;;;;;;6.35;5.80;;;25.00;30.60;;;;;;4991075;28;20104;-65
2022/04/30 07:13:53;;;;;;;9.13;5.15;;;25.10;30.60;;;;;;4997384;28;20049;-65
2022/04/30 07:16:20;;;;;;;5.88;5.38;;;25.10;30.60;;;;;;4996312;28;20057;-63
2022/04/30 07:18:48;;;;;;;5.97;4.82;;;25.10;30.50;;;;;;4995957;28;20042;-71
2022/04/30 07:21:15;;;;;;;9.75;5.90;;;25.10;30.50;;;;;;4995361;28;20049;-72
2022/04/30 07:23:42;;;;;;;4.88;4.50;;;25.10;30.40;;;;;;4994812;28;20081;-70
2022/04/30 07:26:10;;;;;;;6.40;5.80;;;25.10;30.40;;;;;;4994520;28;20042;-70
2022/04/30 07:28:38;;;;;;;5.90;5.28;;;25.20;30.40;;;;;;4979416;28;20423;-70
2022/04/30 07:31:06;;;;;;;7.95;5.10;;;25.20;30.30;;;;;;5041470;28;20164;-55
2022/04/30 07:33:33;;;;;;;10.45;5.63;;;25.20;30.30;;;;;;5044894;28;20033;-61
2022/04/30 07:36:00;;;;;;;22.92;5.72;;;25.20;30.20;;;;;;5044436;28;20048;-55
2022/04/30 07:38:27;;;;;;;12.82;4.40;;;25.20;30.50;;;;;;5047047;28;20044;-56
2022/04/30 07:40:55;;;;;;;11.85;3.13;;;25.20;30.70;;;;;;5043775;28;20045;-56
2022/04/30 07:43:23;;;;;;;7.93;3.50;;;25.20;30.90;;;;;;5043986;28;20076;-55
2022/04/30 07:45:51;;;;;;;9.63;2.90;;;25.10;31.10;;;;;;5048947;28;20604;-52
2022/04/30 07:48:18;;;;;;;4.78;1.50;;;25.10;31.20;;;;;;5046648;28;20048;-55
2022/04/30 07:50:45;;;;;;;18.00;2.63;;;25.00;31.40;;;;;;5046311;28;20090;-55
2022/04/30 07:53:15;;;;;;;5.25;2.20;;;25.00;31.60;;;;;;5045622;28;20056;-55
2022/04/30 07:55:43;;;;;;;11.65;1.40;;;24.90;31.70;;;;;;5047115;28;20037;-51
2022/04/30 07:58:10;;;;;;;7.45;1.42;;;24.90;31.90;;;;;;5047183;28;20383;-56
2022/04/30 08:00:37;;;;;;;4.28;1.20;;;24.90;32.00;;;;;;5047196;28;20057;-54
2022/04/30 08:03:06;;;;;;;3.85;1.27;;;24.80;32.10;;;;;;5046750;28;20057;-55
2022/04/30 08:05:34;;;;;;;9.02;2.22;;;24.90;32.20;;;;;;5047119;28;20045;-53
2022/04/30 08:08:01;;;;;;;2.95;0.63;;;24.80;32.30;;;;;;5044636;28;20055;-52
2022/04/30 08:10:29;;;;;;;4.13;0.85;;;24.80;32.40;;;;;;5046918;28;20049;-54
2022/04/30 08:12:59;;;;;;;0.82;0.57;;;24.80;32.50;;;;;;5047490;28;20127;-53
2022/04/30 08:15:27;;;;;;;2.92;0.45;;;24.80;32.60;;;;;;5029838;28;20135;-52
2022/04/30 08:17:55;;;;;;;6.00;2.42;;;24.80;32.70;;;;;;5047242;28;20445;-53
2022/04/30 08:20:23;;;;;;;2.28;0.93;;;24.70;32.70;;;;;;5045619;28;20415;-53
2022/04/30 08:22:51;;;;;;;2.80;0.60;;;24.70;32.80;;;;;;5046739;28;20576;-52
2022/04/30 08:25:18;;;;;;;3.50;0.82;;;24.70;32.80;;;;;;5045327;28;20348;-49
2022/04/30 08:27:45;;;;;;;3.72;1.05;;;24.70;32.80;;;;;;5047982;28;20045;-52
2022/04/30 08:30:12;;;;;;;5.25;0.95;;;24.70;32.80;;;;;;5046601;28;20381;-55
2022/04/30 08:32:39;;;;;;;2.97;0.55;;;24.70;32.90;;;;;;5046996;28;20060;-55
2022/04/30 08:35:07;;;;;;;4.88;0.55;;;24.70;32.80;;;;;;5046553;28;20029;-52
2022/04/30 08:37:36;;;;;;;3.25;0.75;;;24.70;32.80;;;;;;5046546;28;20409;-56
2022/04/30 08:40:03;;;;;;;3.53;0.88;;;24.70;32.80;;;;;;5046730;28;20128;-53
2022/04/30 08:42:32;;;;;;;1.92;0.68;;;24.70;32.80;;;;;;5047830;28;20476;-55
2022/04/30 08:45:02;;;;;;;4.15;0.80;;;24.70;32.80;;;;;;5046189;28;20048;-53
2022/04/30 08:47:30;;;;;;;1.75;0.40;;;24.70;32.80;;;;;;5046014;28;20041;-54
2022/04/30 08:49:59;;;;;;;3.10;0.60;;;24.70;32.80;;;;;;5046352;28;20039;-55
2022/04/30 08:52:26;;;;;;;2.63;0.90;;;24.70;32.90;;;;;;5046103;28;20096;-53
2022/04/30 08:54:54;;;;;;;1.10;0.40;;;24.70;32.90;;;;;;5047831;28;20048;-50
2022/04/30 08:57:22;;;;;;;3.55;0.57;;;24.70;32.90;;;;;;5046308;28;20525;-55
2022/04/30 08:59:52;;;;;;;1.20;0.93;;;24.70;32.90;;;;;;5045574;28;20048;-50
2022/04/30 09:02:19;;;;;;;2.28;0.63;;;24.70;32.90;;;;;;5025006;28;20057;-54
2022/04/30 09:04:48;;;;;;;2.45;0.85;;;24.70;32.90;;;;;;5028513;28;20049;-51
2022/04/30 09:07:17;;;;;;;1.65;0.55;;;24.80;33.00;;;;;;5046012;28;20436;-52
2022/04/30 09:09:45;;;;;;;2.25;1.05;;;24.70;32.90;;;;;;5048246;28;20041;-52
2022/04/30 09:12:14;;;;;;;3.42;0.70;;;24.70;32.90;;;;;;5019359;28;20107;-51
2022/04/30 09:14:42;;;;;;;1.95;1.02;;;24.70;32.80;;;;;;5045885;28;20041;-53
2022/04/30 09:17:11;;;;;;;2.90;0.75;;;24.70;32.80;;;;;;5045927;28;20044;-50
2022/04/30 09:19:51;;;;;;;2.00;1.20;;;24.80;32.90;;;;;;5044931;28;20553;-54
2022/04/30 09:22:29;;;;;;;2.95;1.00;;;24.80;32.90;;;;;;5045810;28;20045;-56
2022/04/30 09:24:56;;;;;;;1.48;0.82;;;24.80;32.90;;;;;;5046632;28;20051;-57
2022/04/30 09:27:25;;;;;;;1.67;1.08;;;24.70;32.90;;;;;;5046753;28;20505;-57
2022/04/30 09:29:52;;;;;;;2.08;0.82;;;24.80;33.00;;;;;;5045664;28;20055;-56
2022/04/30 09:32:20;;;;;;;1.00;0.40;;;24.80;32.90;;;;;;5045556;28;20819;-55
2022/04/30 09:37:43;;;;;;;0.60;0.43;;;24.80;32.90;;;;;;5040676;28;20120;-55
2022/04/30 09:40:22;;;;;;;2.00;1.25;;;24.80;33.00;;;;;;5027831;28;20076;-56
2022/04/30 09:42:51;;;;;;;1.40;0.80;;;24.80;32.90;;;;;;5046939;28;20041;-53
2022/04/30 09:45:26;;;;;;;0.93;0.77;;;24.80;32.90;;;;;;5045415;28;20187;-55
2022/04/30 09:47:54;;;;;;;3.75;0.85;;;24.80;32.90;;;;;;5044998;28;20049;-55
2022/04/30 09:55:54;;;;;;;4.10;1.02;;;24.90;32.90;;;;;;5045097;28;20576;-55
2022/04/30 09:58:25;;;;;;;5.82;2.10;;;24.80;32.80;;;;;;5045398;28;20045;-56
2022/04/30 10:00:58;;;;;;;0.70;0.70;;;24.90;32.90;;;;;;5045425;28;20044;-56
2022/04/30 10:03:28;;;;;;;1.20;1.10;;;24.90;32.80;;;;;;5043500;28;20040;-55
2022/04/30 10:06:01;;;;;;;2.20;0.55;;;24.90;32.80;;;;;;5045426;28;20143;-53
2022/04/30 10:08:30;;;;;;;1.95;0.73;;;24.90;32.80;;;;;;5044626;28;20069;-57
2022/04/30 10:11:10;;;;;;;2.70;1.05;;;24.90;32.80;;;;;;5045041;28;20037;-54
2022/04/30 10:13:50;;;;;;;4.60;1.02;;;24.90;32.70;;;;;;5042049;28;20811;-56
2022/04/30 10:16:24;;;;;;;2.45;0.60;;;24.90;32.70;;;;;;5048789;28;20037;-57
2022/04/30 10:19:10;;;;;;;1.65;0.85;;;24.90;32.60;;;;;;5050028;28;20045;-56
2022/04/30 10:21:37;;;;;;;4.82;1.00;;;24.90;32.60;;;;;;5050341;28;20049;-56
2022/04/30 10:24:05;;;;;;;2.58;1.10;;;24.90;32.60;;;;;;5048710;28;20041;-55
2022/04/30 10:26:33;;;;;;;2.28;0.90;;;24.90;32.60;;;;;;5048636;28;20037;-57
2022/04/30 10:29:02;;;;;;;3.67;0.95;;;25.00;32.60;;;;;;5048684;28;20044;-54
2022/04/30 10:31:29;;;;;;;1.88;1.42;;;25.00;32.60;;;;;;5049057;28;20047;-55
2022/04/30 10:33:56;;;;;;;1.35;1.13;;;25.00;32.60;;;;;;5050228;28;20037;-55
2022/04/30 10:36:23;;;;;;;2.60;0.80;;;25.00;32.50;;;;;;5048743;28;20056;-52
2022/04/30 10:38:59;;;;;;;2.67;0.63;;;25.00;32.50;;;;;;5048307;28;20094;-54
2022/04/30 10:41:27;;;;;;;2.78;0.98;;;25.00;32.40;;;;;;5048559;28;20061;-53
2022/04/30 10:44:03;;;;;;;1.85;0.40;;;25.10;32.50;;;;;;5042542;28;20095;-54
2022/04/30 10:46:37;;;;;;;1.77;1.00;;;25.10;32.50;;;;;;5043505;28;20073;-54
2022/04/30 10:49:05;;;;;;;1.45;0.80;;;25.10;32.50;;;;;;5048952;28;20829;-56
2022/04/30 10:51:38;;;;;;;2.30;0.47;;;25.10;32.50;;;;;;5049937;28;20044;-57
2022/04/30 10:54:10;;;;;;;1.17;0.95;;;25.10;32.50;;;;;;5048541;28;20049;-57
2022/04/30 10:56:38;;;;;;;0.40;0.40;;;25.10;32.50;;;;;;5047951;28;20048;-47
2022/04/30 10:59:07;;;;;;;1.27;0.70;;;25.20;32.50;;;;;;5048438;28;20048;-51
2022/04/30 11:01:34;;;;;;;1.48;1.13;;;25.20;32.40;;;;;;5048422;28;20099;-54
2022/04/30 11:04:02;;;;;;;1.90;0.43;;;25.20;32.40;;;;;;5048541;28;20063;-53
2022/04/30 11:06:31;;;;;;;2.03;0.63;;;25.20;32.30;;;;;;5048496;28;20123;-54
2022/04/30 11:09:02;;;;;;;0.70;0.30;;;25.20;32.40;;;;;;5048300;28;20041;-54
2022/04/30 11:11:30;;;;;;;0.50;0.47;;;25.30;32.50;;;;;;5048329;28;20037;-55
2022/04/30 11:14:00;;;;;;;1.50;0.88;;;25.30;32.50;;;;;;5048264;28;20040;-53
2022/04/30 11:16:33;;;;;;;1.48;0.88;;;25.30;32.50;;;;;;5028227;28;20078;-53
2022/04/30 11:19:03;;;;;;;1.27;0.40;;;25.30;32.40;;;;;;5048338;28;20157;-56
2022/04/30 11:21:31;;;;;;;1.98;0.60;;;25.30;32.40;;;;;;5042368;28;20037;-56
2022/04/30 11:23:59;;;;;;;0.98;0.40;;;25.30;32.90;;;;;;5047467;28;20051;-55
2022/04/30 11:26:27;;;;;;;0.50;0.30;;;25.30;32.30;;;;;;5047709;28;20120;-54
2022/04/30 11:28:54;;;;;;;2.20;0.40;;;25.30;32.20;;;;;;5047985;28;20048;-54
2022/04/30 11:31:21;;;;;;;1.35;0.75;;;25.40;32.90;;;;;;5048465;28;20040;-55
2022/04/30 11:33:50;;;;;;;2.58;0.80;;;25.40;32.30;;;;;;5049702;28;20045;-54
2022/04/30 11:36:17;;;;;;;1.35;0.30;;;25.40;32.30;;;;;;5047069;28;20055;-56
2022/04/30 11:38:52;;;;;;;0.70;0.60;;;25.40;32.30;;;;;;5047600;28;20068;-55
2022/04/30 11:41:19;;;;;;;1.25;0.30;;;25.50;32.40;;;;;;5047492;28;23404;-56
2022/04/30 11:43:46;;;;;;;1.38;0.50;;;25.60;32.40;;;;;;5046915;28;20123;-54
2022/04/30 11:46:15;;;;;;;0.60;0.30;;;25.60;32.40;;;;;;5047692;28;20048;-56
2022/04/30 11:48:42;;;;;;;0.68;0.25;;;25.60;32.40;;;;;;5049112;28;20044;-52
2022/04/30 11:51:11;;;;;;;0.30;0.30;;;25.60;32.30;;;;;;5046851;28;20076;-52
2022/04/30 11:53:38;;;;;;;0.73;0.25;;;25.70;32.40;;;;;;5047647;28;20064;-54
2022/04/30 11:56:06;;;;;;;0.85;0.73;;;25.70;32.40;;;;;;5046923;28;20072;-56
2022/04/30 11:58:43;;;;;;;1.60;0.30;;;25.70;32.30;;;;;;5047660;28;20040;-56
2022/04/30 12:01:21;;;;;;;0.57;0.20;;;25.70;32.30;;;;;;5047743;28;20131;-48
2022/04/30 12:03:58;;;;;;;0.60;0.30;;;25.80;32.30;;;;;;5048073;28;20043;-56
2022/04/30 12:06:28;;;;;;;0.88;0.32;;;25.80;32.40;;;;;;5047478;28;20049;-51
2022/04/30 12:08:55;;;;;;;0.20;0.20;;;25.80;32.30;;;;;;5047471;28;20598;-49
2022/04/30 12:11:23;;;;;;;0.20;0.20;;;25.90;32.30;;;;;;5046816;28;20053;-54
2022/04/30 12:13:58;;;;;;;0.45;0.40;;;25.90;32.20;;;;;;5047258;28;20033;-53
2022/04/30 12:16:25;;;;;;;0.35;0.35;;;25.90;32.20;;;;;;5045136;28;20117;-53
2022/04/30 12:24:43;;;;;;;0.73;0.20;;;26.10;32.30;;;;;;5047397;28;20079;-55
2022/04/30 12:27:19;;;;;;;0.20;0.20;;;26.10;32.20;;;;;;5028913;28;20037;-52
2022/04/30 12:29:47;;;;;;;0.20;0.20;;;26.10;32.10;;;;;;5046579;28;20049;-52
2022/04/30 12:32:17;;;;;;;0.57;0.10;;;26.10;32.10;;;;;;5046678;28;20040;-51
2022/04/30 12:34:45;;;;;;;0.38;0.20;;;26.20;32.10;;;;;;5046187;28;20103;-53
2022/04/30 12:37:14;;;;;;;1.63;0.50;;;26.20;32.10;;;;;;5046321;28;20494;-55
2022/04/30 12:39:42;;;;;;;0.45;0.17;;;26.30;32.10;;;;;;5048171;28;20803;-55
2022/04/30 12:42:11;;;;;;;0.15;0.10;;;26.30;32.00;;;;;;5046363;28;20123;-54
2022/04/30 12:44:38;;;;;;;0.70;0.10;;;26.40;32.10;;;;;;5045367;28;20713;-51
2022/04/30 12:47:05;;;;;;;0.52;0.20;;;26.40;32.00;;;;;;5046379;28;20041;-52
2022/04/30 12:49:33;;;;;;;1.50;0.30;;;26.50;32.00;;;;;;5045943;28;20048;-49
2022/04/30 12:52:00;;;;;;;0.30;0.25;;;26.50;32.00;;;;;;5047001;28;20463;-53
2022/04/30 12:54:28;;;;;;;0.85;0.20;;;26.50;32.50;;;;;;5047267;28;20115;-51
2022/04/30 12:56:57;;;;;;;1.00;0.10;;;26.60;31.90;;;;;;5045961;28;20818;-56
2022/04/30 12:59:25;;;;;;;0.43;0.10;;;26.60;31.80;;;;;;5046326;28;20075;-52
2022/04/30 13:01:52;;;;;;;0.32;0.20;;;26.70;31.80;;;;;;5046178;28;20061;-55
2022/04/30 13:04:19;;;;;;;1.17;0.10;;;26.70;31.70;;;;;;5045952;28;20128;-55
2022/04/30 13:06:47;;;;;;;0.10;0.10;;;26.80;31.70;;;;;;5047496;28;20098;-55
2022/04/30 13:14:45;;;;;;;0.40;0.10;;;26.90;31.60;;;;;;5045641;28;20048;-55
2022/04/30 13:17:12;;;;;;;1.15;0.10;;;26.90;31.60;;;;;;5045436;28;20429;-55
2022/04/30 13:19:40;;;;;;;0.25;0.25;;;27.00;31.60;;;;;;5045735;28;20049;-54
2022/04/30 13:22:07;;;;;;;0.35;0.10;;;27.00;31.50;;;;;;5045941;28;20056;-53
2022/04/30 13:24:34;;;;;;;0.10;0.10;;;27.10;31.50;;;;;;5029275;28;20596;-55
2022/04/30 13:27:03;;;;;;;0.13;0.13;;;27.20;31.50;;;;;;5045517;28;20567;-55
2022/04/30 13:29:31;;;;;;;0.30;0.30;;;27.20;31.40;;;;;;5045450;28;20068;-51
2022/04/30 13:31:58;;;;;;;0.10;0.10;;;27.20;31.30;;;;;;5045554;28;20037;-54
2022/04/30 13:34:25;;;;;;;0.10;0.10;;;27.30;31.30;;;;;;5045696;28;20044;-57
2022/04/30 13:36:52;;;;;;;0.30;0.10;;;27.30;31.20;;;;;;5047234;28;20112;-53
2022/04/30 13:39:19;;;;;;;2.28;0.17;;;27.40;31.30;;;;;;5042305;28;21338;-55
2022/04/30 13:41:46;;;;;;;1.98;0.20;;;27.40;30.70;;;;;;5041929;28;20048;-51
2022/04/30 13:44:14;;;;;;;1.38;0.40;;;27.40;30.10;;;;;;5023618;28;20079;-56
2022/04/30 13:46:42;;;;;;;0.10;0.10;;;27.50;29.70;;;;;;5042834;28;20060;-59